createdAt,value
2022-08-07T00:01:12.501Z,18.86
2022-08-07T00:03:57.212Z,18.83
2022-08-07T00:06:33.422Z,18.76
2022-08-07T00:09:16.750Z,18.74
2022-08-07T00:11:58.809Z,18.70
2022-08-07T00:14:32.003Z,18.67
2022-08-07T00:17:05.023Z,18.54
2022-08-07T00:20:00.939Z,18.53
2022-08-07T00:22:35.259Z,18.57
2022-08-07T00:25:15.792Z,18.56
2022-08-07T00:27:52.385Z,18.51
2022-08-07T00:30:28.566Z,18.50
2022-08-07T00:33:02.289Z,18.49
2022-08-07T00:35:35.336Z,18.50
2022-08-07T00:38:08.979Z,18.47
2022-08-07T00:40:45.576Z,18.44
2022-08-07T00:43:58.873Z,18.41
2022-08-07T00:46:11.006Z,18.37
2022-08-07T00:48:43.152Z,18.32
2022-08-07T00:51:16.755Z,18.29
2022-08-07T00:53:50.769Z,18.23
2022-08-07T00:56:30.402Z,18.19
2022-08-07T00:59:06.895Z,18.14
2022-08-07T01:01:43.988Z,18.00
2022-08-07T01:04:24.831Z,18.00
2022-08-07T01:06:57.230Z,18.04
2022-08-07T01:10:02.388Z,18.02
2022-08-07T01:12:29.839Z,18.00
2022-08-07T01:15:03.763Z,17.94
2022-08-07T01:17:37.590Z,17.92
2022-08-07T01:20:17.458Z,17.88
2022-08-07T01:23:09.130Z,17.83
2022-08-07T01:25:55.881Z,17.79
2022-08-07T01:28:30.273Z,17.79
2022-08-07T01:31:05.568Z,17.70
2022-08-07T01:33:55.605Z,17.75
2022-08-07T01:36:33.386Z,17.71
2022-08-07T01:39:09.939Z,17.68
2022-08-07T01:41:55.220Z,17.66
2022-08-07T01:44:39.726Z,17.62
2022-08-07T01:48:16.609Z,17.57
2022-08-07T01:50:08.401Z,17.54
2022-08-07T01:52:54.014Z,17.53
2022-08-07T01:55:33.346Z,17.47
2022-08-07T01:58:29.358Z,17.49
2022-08-07T02:01:58.902Z,17.48
2022-08-07T02:04:15.539Z,17.36
2022-08-07T02:06:52.747Z,17.28
2022-08-07T02:09:51.691Z,17.35
2022-08-07T02:12:29.288Z,17.32
2022-08-07T02:15:06.884Z,17.34
2022-08-07T02:17:51.707Z,17.27
2022-08-07T02:20:25.852Z,17.26
2022-08-07T02:23:05.327Z,17.21
2022-08-07T02:26:26.722Z,17.20
2022-08-07T02:28:34.600Z,17.13
2022-08-07T02:31:28.883Z,17.13
2022-08-07T02:34:11.495Z,17.13
2022-08-07T02:36:56.456Z,17.09
2022-08-07T02:39:43.637Z,17.08
2022-08-07T02:42:28.012Z,17.06
2022-08-07T02:45:01.217Z,17.03
2022-08-07T02:47:49.438Z,17.03
2022-08-07T02:50:22.969Z,17.02
2022-08-07T02:53:03.445Z,17.02
2022-08-07T02:56:03.430Z,16.99
2022-08-07T02:58:47.194Z,16.99
2022-08-07T03:01:36.485Z,16.99
2022-08-07T03:04:17.570Z,16.97
2022-08-07T03:06:51.831Z,16.95
2022-08-07T03:09:43.467Z,16.94
2022-08-07T03:12:22.219Z,16.90
2022-08-07T03:14:58.493Z,16.88
2022-08-07T03:17:53.654Z,16.85
2022-08-07T03:20:28.591Z,16.87
2022-08-07T03:23:02.835Z,16.86
2022-08-07T03:25:41.648Z,16.86
2022-08-07T03:28:38.468Z,16.83
2022-08-07T03:31:24.585Z,16.83
2022-08-07T03:34:03.292Z,16.83
2022-08-07T03:36:39.220Z,16.84
2022-08-07T03:39:15.109Z,16.80
2022-08-07T03:41:50.965Z,16.76
2022-08-07T03:44:34.313Z,16.78
2022-08-07T03:47:11.355Z,16.76
2022-08-07T03:49:52.360Z,16.75
2022-08-07T03:52:29.248Z,16.74
2022-08-07T03:55:07.852Z,16.73
2022-08-07T03:58:35.343Z,16.73
2022-08-07T04:00:42.593Z,16.71
2022-08-07T04:03:19.263Z,16.72
2022-08-07T04:05:58.705Z,16.71
2022-08-07T04:08:33.555Z,16.72
2022-08-07T04:12:24.747Z,16.70
2022-08-07T04:14:10.745Z,16.69
2022-08-07T04:16:58.517Z,16.70
2022-08-07T04:19:51.101Z,16.73
2022-08-07T04:22:28.482Z,16.75
2022-08-07T04:25:08.822Z,16.69
2022-08-07T04:27:59.117Z,16.74
2022-08-07T04:30:43.904Z,16.76
2022-08-07T04:33:31.888Z,16.78
2022-08-07T04:36:11.855Z,16.80
2022-08-07T04:38:44.499Z,16.82
2022-08-07T04:41:19.183Z,16.85
2022-08-07T04:44:12.955Z,16.85
2022-08-07T04:47:08.220Z,16.87
2022-08-07T04:50:03.830Z,16.90
2022-08-07T04:52:51.270Z,16.95
2022-08-07T04:58:23.765Z,16.90
2022-08-07T04:59:18.476Z,17.04
2022-08-07T05:01:42.739Z,17.10
2022-08-07T05:04:19.730Z,17.15
2022-08-07T05:06:59.622Z,17.18
2022-08-07T05:09:46.511Z,17.21
2022-08-07T05:12:27.021Z,17.28
2022-08-07T05:15:23.313Z,17.33
2022-08-07T05:18:09.061Z,17.39
2022-08-07T05:20:49.108Z,17.46
2022-08-07T05:23:31.027Z,17.49
2022-08-07T05:26:18.703Z,17.58
2022-08-07T05:29:04.189Z,17.66
2022-08-07T05:31:41.620Z,17.76
2022-08-07T05:34:27.846Z,17.86
2022-08-07T05:37:01.593Z,17.93
2022-08-07T05:40:05.864Z,18.04
2022-08-07T05:42:36.949Z,18.14
2022-08-07T05:45:26.268Z,18.22
2022-08-07T05:48:33.077Z,18.26
2022-08-07T05:51:07.448Z,18.37
2022-08-07T05:54:09.540Z,18.51
2022-08-07T05:56:32.775Z,18.57
2022-08-07T05:59:10.118Z,18.59
2022-08-07T06:01:49.006Z,18.79
2022-08-07T06:04:26.305Z,18.88
2022-08-07T06:07:06.133Z,18.96
2022-08-07T06:10:03.710Z,19.04
2022-08-07T06:12:35.273Z,19.13
2022-08-07T06:15:16.211Z,19.18
2022-08-07T06:17:53.577Z,19.19
2022-08-07T06:20:49.976Z,19.34
2022-08-07T06:23:46.606Z,19.42
2022-08-07T06:26:16.674Z,19.53
2022-08-07T06:28:54.345Z,19.63
2022-08-07T06:31:46.755Z,19.69
2022-08-07T06:34:21.478Z,19.87
2022-08-07T06:36:54.954Z,19.96
2022-08-07T06:40:18.289Z,20.01
2022-08-07T06:42:34.962Z,20.10
2022-08-07T06:45:30.142Z,20.15
2022-08-07T06:48:06.554Z,20.20
2022-08-07T06:50:47.670Z,20.28
2022-08-07T06:55:27.330Z,20.38
2022-08-07T06:56:38.677Z,20.47
2022-08-07T07:00:14.269Z,20.59
2022-08-07T07:02:53.305Z,20.70
2022-08-07T07:06:02.900Z,20.76
2022-08-07T07:08:18.470Z,20.84
2022-08-07T07:11:00.987Z,20.92
2022-08-07T07:13:55.724Z,20.98
2022-08-07T07:16:33.426Z,21.06
2022-08-07T07:19:56.308Z,21.14
2022-08-07T07:22:04.569Z,21.20
2022-08-07T07:25:02.424Z,21.27
2022-08-07T07:27:55.739Z,21.34
2022-08-07T07:30:39.662Z,21.40
2022-08-07T07:33:17.296Z,21.50
2022-08-07T07:36:04.619Z,21.56
2022-08-07T07:38:37.353Z,21.66
2022-08-07T07:41:15.229Z,21.67
2022-08-07T07:44:17.983Z,21.75
2022-08-07T07:46:57.205Z,21.81
2022-08-07T07:50:33.876Z,21.85
2022-08-07T07:52:33.818Z,21.80
2022-08-07T07:55:10.902Z,21.73
2022-08-07T07:57:50.424Z,21.86
2022-08-07T08:00:31.302Z,22.00
2022-08-07T08:03:16.560Z,22.07
2022-08-07T08:05:53.936Z,21.92
2022-08-07T08:08:34.309Z,22.12
2022-08-07T08:11:16.119Z,22.28
2022-08-07T08:13:54.458Z,22.24
2022-08-07T08:16:35.018Z,22.16
2022-08-07T08:19:17.814Z,22.19
2022-08-07T08:22:20.021Z,22.18
2022-08-07T08:25:24.746Z,22.15
2022-08-07T08:28:10.977Z,22.19
2022-08-07T08:30:50.967Z,22.31
2022-08-07T08:33:28.957Z,22.30
2022-08-07T08:36:06.652Z,22.46
2022-08-07T08:38:44.790Z,22.62
2022-08-07T08:41:24.251Z,22.76
2022-08-07T08:44:10.259Z,22.87
2022-08-07T08:46:49.159Z,22.91
2022-08-07T08:49:33.217Z,22.82
2022-08-07T08:52:23.832Z,23.03
2022-08-07T08:55:08.079Z,23.17
2022-08-07T08:57:45.784Z,23.24
2022-08-07T09:00:19.333Z,23.23
2022-08-07T09:03:00.853Z,23.31
2022-08-07T09:05:48.088Z,23.47
2022-08-07T09:08:32.865Z,23.62
2022-08-07T09:11:50.836Z,23.67
2022-08-07T09:14:32.838Z,23.91
2022-08-07T09:17:18.479Z,24.08
2022-08-07T09:19:59.121Z,24.25
2022-08-07T09:24:31.218Z,24.31
2022-08-07T09:25:54.890Z,24.47
2022-08-07T09:30:05.813Z,24.40
2022-08-07T09:31:48.573Z,24.34
2022-08-07T09:34:27.431Z,24.55
2022-08-07T09:37:05.849Z,24.51
2022-08-07T09:39:53.833Z,24.77
2022-08-07T09:42:46.943Z,24.89
2022-08-07T09:47:52.710Z,24.97
2022-08-07T09:48:50.192Z,25.05
2022-08-07T09:52:16.385Z,24.77
2022-08-07T09:55:06.166Z,24.44
2022-08-07T09:58:08.778Z,24.35
2022-08-07T10:00:59.305Z,24.27
2022-08-07T10:04:05.879Z,24.14
2022-08-07T10:07:00.065Z,24.24
2022-08-07T10:10:00.877Z,24.42
2022-08-07T10:12:52.661Z,24.63
2022-08-07T10:15:47.536Z,24.70
2022-08-07T10:18:35.534Z,24.87
2022-08-07T10:22:12.366Z,25.05
2022-08-07T10:24:51.308Z,25.26
2022-08-07T10:27:46.632Z,25.29
2022-08-07T10:30:28.458Z,25.31
2022-08-07T10:34:05.742Z,25.46
2022-08-07T10:36:37.566Z,25.75
2022-08-07T10:39:18.733Z,25.94
2022-08-07T10:42:09.335Z,25.83
2022-08-07T10:45:03.328Z,25.98
2022-08-07T10:47:55.748Z,26.07
2022-08-07T10:50:42.619Z,26.32
2022-08-07T10:53:44.025Z,26.44
2022-08-07T10:56:31.875Z,26.59
2022-08-07T10:59:21.783Z,26.71
2022-08-07T11:02:12.089Z,26.85
2022-08-07T11:05:01.677Z,26.89
2022-08-07T11:07:59.129Z,26.94
2022-08-07T11:10:40.563Z,26.87
2022-08-07T11:14:43.389Z,26.81
2022-08-07T11:16:30.478Z,26.77
2022-08-07T11:19:11.252Z,26.87
2022-08-07T11:21:51.396Z,26.78
2022-08-07T11:24:31.611Z,26.52
2022-08-07T11:28:00.910Z,26.29
2022-08-07T11:30:17.771Z,26.02
2022-08-07T11:32:58.640Z,25.88
2022-08-07T11:35:35.820Z,25.73
2022-08-07T11:38:34.912Z,25.57
2022-08-07T11:41:18.213Z,25.48
2022-08-07T11:44:12.502Z,25.90
2022-08-07T11:46:59.084Z,26.16
2022-08-07T11:50:31.027Z,26.47
2022-08-07T11:53:11.391Z,26.58
2022-08-07T11:56:08.977Z,26.94
2022-08-07T11:59:00.300Z,27.15
2022-08-07T12:02:01.298Z,27.25
2022-08-07T12:04:47.589Z,27.27
2022-08-07T12:07:39.164Z,27.40
2022-08-07T12:10:18.890Z,27.55
2022-08-07T12:13:01.886Z,27.53
2022-08-07T12:16:05.646Z,27.72
2022-08-07T12:18:45.549Z,27.86
2022-08-07T12:21:55.912Z,27.94
2022-08-07T12:24:40.472Z,28.04
2022-08-07T12:27:17.941Z,28.12
2022-08-07T12:30:05.384Z,28.16
2022-08-07T12:32:44.331Z,28.37
2022-08-07T12:35:21.940Z,28.43
2022-08-07T12:38:09.509Z,28.48
2022-08-07T12:40:50.316Z,28.55
2022-08-07T12:44:04.500Z,28.66
2022-08-07T12:46:32.387Z,28.49
2022-08-07T12:49:25.204Z,28.65
2022-08-07T12:52:17.861Z,28.68
2022-08-07T12:55:05.586Z,28.48
2022-08-07T12:58:01.045Z,28.15
2022-08-07T13:00:49.781Z,27.96
2022-08-07T13:04:05.026Z,27.79
2022-08-07T13:07:00.659Z,27.51
2022-08-07T13:10:38.035Z,27.28
2022-08-07T13:13:48.669Z,27.00
2022-08-07T13:16:32.311Z,27.01
2022-08-07T13:19:21.826Z,27.30
2022-08-07T13:22:19.382Z,27.48
2022-08-07T13:25:00.238Z,27.72
2022-08-07T13:28:12.531Z,27.93
2022-08-07T13:30:41.559Z,28.12
2022-08-07T13:34:14.800Z,28.20
2022-08-07T13:36:25.725Z,28.24
2022-08-07T13:39:11.202Z,28.38
2022-08-07T13:41:54.677Z,28.25
2022-08-07T13:44:36.815Z,28.37
2022-08-07T13:47:15.837Z,28.66
2022-08-07T13:50:33.237Z,28.66
2022-08-07T13:52:48.795Z,28.83
2022-08-07T13:55:26.288Z,28.88
2022-08-07T13:58:27.846Z,29.01
2022-08-07T14:01:13.163Z,29.29
2022-08-07T14:04:06.715Z,29.58
2022-08-07T14:06:44.213Z,29.81
2022-08-07T14:10:01.992Z,29.83
2022-08-07T14:12:27.517Z,29.80
2022-08-07T14:15:06.243Z,29.83
2022-08-07T14:18:23.857Z,29.83
2022-08-07T14:20:40.223Z,29.76
2022-08-07T14:23:31.328Z,29.82
2022-08-07T14:26:28.469Z,29.72
2022-08-07T14:30:02.846Z,29.74
2022-08-07T14:32:03.248Z,29.30
2022-08-07T14:34:46.306Z,28.94
2022-08-07T14:37:23.742Z,28.72
2022-08-07T14:40:26.140Z,28.33
2022-08-07T14:43:55.645Z,28.10
2022-08-07T14:45:59.581Z,27.85
2022-08-07T14:48:33.947Z,27.67
2022-08-07T14:51:15.917Z,27.39
2022-08-07T14:54:09.551Z,27.27
2022-08-07T14:56:50.557Z,27.06
2022-08-07T15:00:04.675Z,26.88
2022-08-07T15:02:31.973Z,26.82
2022-08-07T15:05:20.519Z,26.68
2022-08-07T15:07:56.992Z,26.65
2022-08-07T15:10:31.470Z,26.79
2022-08-07T15:13:11.694Z,26.92
2022-08-07T15:15:52.671Z,26.95
2022-08-07T15:18:36.203Z,27.15
2022-08-07T15:21:58.387Z,27.23
2022-08-07T15:25:13.219Z,27.19
2022-08-07T15:27:15.454Z,27.26
2022-08-07T15:36:01.274Z,27.54
2022-08-07T15:42:43.573Z,27.56
2022-08-07T15:44:24.451Z,27.57
2022-08-07T15:47:03.540Z,27.46
2022-08-07T15:50:04.972Z,27.54
2022-08-07T15:52:39.101Z,27.65
2022-08-07T15:55:19.338Z,27.66
2022-08-07T15:58:00.245Z,27.70
2022-08-07T16:00:36.798Z,27.58
2022-08-07T16:03:21.462Z,27.70
2022-08-07T16:05:57.030Z,27.69
2022-08-07T16:08:38.932Z,27.59
2022-08-07T16:11:28.720Z,27.68
2022-08-07T16:14:12.865Z,27.65
2022-08-07T16:17:15.188Z,27.65
2022-08-07T16:20:07.627Z,27.58
2022-08-07T16:22:55.634Z,27.55
2022-08-07T16:25:53.062Z,27.49
2022-08-07T16:30:07.390Z,27.41
2022-08-07T16:31:51.527Z,27.30
2022-08-07T16:34:40.296Z,27.23
2022-08-07T16:38:06.162Z,27.12
2022-08-07T16:41:17.974Z,26.96
2022-08-07T16:44:40.390Z,26.87
2022-08-07T16:47:56.736Z,26.74
2022-08-07T16:50:48.204Z,26.62
2022-08-07T16:54:06.543Z,26.50
2022-08-07T16:57:03.236Z,26.37
2022-08-07T16:59:51.376Z,26.24
2022-08-07T17:02:51.082Z,26.13
2022-08-07T17:06:30.446Z,26.00
2022-08-07T17:09:10.601Z,25.88
2022-08-07T17:12:04.873Z,25.78
2022-08-07T17:14:49.780Z,25.66
2022-08-07T17:17:46.080Z,25.51
2022-08-07T17:20:37.469Z,25.46
2022-08-07T17:23:37.804Z,25.36
2022-08-07T17:26:24.052Z,25.27
2022-08-07T17:30:13.216Z,25.18
2022-08-07T17:32:30.999Z,25.10
2022-08-07T17:35:50.089Z,25.11
2022-08-07T17:38:33.589Z,25.09
2022-08-07T17:42:04.811Z,25.10
2022-08-07T17:44:34.014Z,25.05
2022-08-07T17:47:16.579Z,25.12
2022-08-07T17:49:55.798Z,25.17
2022-08-07T17:52:39.742Z,25.16
2022-08-07T17:55:55.728Z,25.19
2022-08-07T17:58:30.257Z,25.16
2022-08-07T18:01:20.583Z,25.13
2022-08-07T18:04:16.432Z,25.09
2022-08-07T18:07:18.994Z,24.77
2022-08-07T18:10:06.411Z,24.85
2022-08-07T18:13:09.611Z,24.84
2022-08-07T18:15:56.074Z,24.74
2022-08-07T18:21:01.134Z,24.60
2022-08-07T18:21:54.890Z,24.55
2022-08-07T18:24:35.284Z,24.44
2022-08-07T18:27:26.238Z,24.34
2022-08-07T18:30:33.112Z,24.24
2022-08-07T18:33:54.957Z,24.15
2022-08-07T18:36:40.898Z,24.05
2022-08-07T18:40:06.590Z,24.00
2022-08-07T18:42:27.681Z,23.95
2022-08-07T18:45:44.993Z,23.89
2022-08-07T18:50:04.875Z,23.83
2022-08-07T18:52:35.401Z,23.76
2022-08-07T18:54:30.537Z,23.70
2022-08-07T18:57:30.413Z,23.63
2022-08-07T19:00:34.749Z,23.57
2022-08-07T19:03:12.459Z,23.51
2022-08-07T19:06:04.193Z,23.46
2022-08-07T19:08:58.840Z,23.39
2022-08-07T19:12:03.892Z,23.35
2022-08-07T19:14:52.002Z,23.29
2022-08-07T19:17:55.831Z,23.25
2022-08-07T19:20:39.834Z,23.19
2022-08-07T19:23:59.200Z,23.14
2022-08-07T19:27:08.991Z,23.05
2022-08-07T19:31:00.216Z,23.06
2022-08-07T19:32:34.602Z,22.95
2022-08-07T19:35:22.590Z,22.99
2022-08-07T19:37:59.650Z,22.95
2022-08-07T19:40:38.787Z,22.89
2022-08-07T19:43:43.440Z,22.85
2022-08-07T19:46:26.309Z,22.78
2022-08-07T19:49:06.140Z,22.73
2022-08-07T19:51:51.830Z,22.67
2022-08-07T19:54:34.121Z,22.62
2022-08-07T19:58:00.369Z,22.55
2022-08-07T20:00:28.031Z,22.52
2022-08-07T20:03:35.734Z,22.51
2022-08-07T20:06:02.523Z,22.49
2022-08-07T20:08:37.234Z,22.47
2022-08-07T20:11:15.250Z,22.44
2022-08-07T20:14:07.365Z,22.37
2022-08-07T20:16:56.602Z,22.32
2022-08-07T20:19:47.949Z,22.25
2022-08-07T20:22:29.433Z,22.17
2022-08-07T20:25:12.827Z,22.13
2022-08-07T20:27:58.803Z,22.08
2022-08-07T20:30:38.269Z,21.95
2022-08-07T20:33:36.944Z,21.99
2022-08-07T20:36:07.992Z,21.94
2022-08-07T20:39:00.088Z,21.89
2022-08-07T20:41:40.703Z,21.83
2022-08-07T20:44:14.365Z,21.78
2022-08-07T20:46:48.288Z,21.76
2022-08-07T20:49:59.077Z,21.64
2022-08-07T20:52:51.032Z,21.61
2022-08-07T20:55:25.982Z,21.63
2022-08-07T20:58:19.193Z,21.60
2022-08-07T21:00:58.834Z,21.53
2022-08-07T21:03:33.333Z,21.50
2022-08-07T21:06:21.829Z,21.44
2022-08-07T21:09:12.885Z,21.36
2022-08-07T21:11:51.841Z,21.34
2022-08-07T21:14:34.216Z,21.30
2022-08-07T21:18:02.842Z,21.21
2022-08-07T21:20:09.843Z,21.17
2022-08-07T21:22:51.261Z,21.14
2022-08-07T21:25:39.018Z,21.07
2022-08-07T21:28:16.763Z,21.02
2022-08-07T21:31:10.604Z,20.97
2022-08-07T21:33:51.030Z,20.91
2022-08-07T21:36:32.760Z,20.86
2022-08-07T21:39:46.706Z,20.75
2022-08-07T21:42:41.672Z,20.77
2022-08-07T21:46:05.086Z,20.73
2022-08-07T21:48:28.576Z,20.69
2022-08-07T21:51:19.628Z,20.64
2022-08-07T21:53:54.639Z,20.58
2022-08-07T21:56:47.112Z,20.52
2022-08-07T22:00:04.970Z,20.51
2022-08-07T22:02:54.332Z,20.47
2022-08-07T22:05:46.138Z,20.45
2022-08-07T22:08:24.803Z,20.42
2022-08-07T22:11:04.561Z,20.36
2022-08-07T22:13:52.442Z,20.32
2022-08-07T22:16:42.807Z,20.27
2022-08-07T22:19:30.125Z,20.25
2022-08-07T22:22:17.964Z,20.23
2022-08-07T22:25:08.414Z,20.19
2022-08-07T22:28:07.587Z,20.16
2022-08-07T22:30:52.887Z,20.11
2022-08-07T22:33:52.585Z,20.07
2022-08-07T22:36:38.707Z,19.95
2022-08-07T22:39:23.426Z,19.97
2022-08-07T22:42:53.690Z,19.85
2022-08-07T22:45:02.210Z,19.88
2022-08-07T22:47:56.545Z,19.88
2022-08-07T22:51:08.500Z,19.87
2022-08-07T22:54:09.250Z,19.81
2022-08-07T22:56:57.036Z,19.77
2022-08-07T22:59:53.252Z,19.74
2022-08-07T23:02:35.957Z,19.74
2022-08-07T23:06:07.670Z,19.74
2022-08-07T23:08:51.602Z,19.70
2022-08-07T23:11:45.718Z,19.70
2022-08-07T23:14:48.899Z,19.70
2022-08-07T23:17:45.174Z,19.68
2022-08-07T23:20:52.986Z,19.66
2022-08-07T23:24:05.176Z,19.64
2022-08-07T23:26:50.579Z,19.63
2022-08-07T23:30:39.407Z,19.58
2022-08-07T23:34:22.628Z,19.54
2022-08-07T23:36:04.938Z,19.55
2022-08-07T23:39:02.338Z,19.50
2022-08-07T23:42:05.373Z,19.46
2022-08-07T23:45:15.362Z,19.42
2022-08-07T23:48:22.603Z,19.38
2022-08-07T23:51:01.125Z,19.39
2022-08-07T23:53:51.286Z,19.39
2022-08-07T23:56:28.530Z,19.34
